createdAt,value
2018-07-07T00:01:25.167Z,72.09
2018-07-07T00:03:53.460Z,72.79
2018-07-07T00:06:22.015Z,72.23
2018-07-07T00:08:50.267Z,73.36
2018-07-07T00:11:18.806Z,72.81
2018-07-07T00:13:47.250Z,72.42
2018-07-07T00:16:15.226Z,72.50
2018-07-07T00:18:43.527Z,71.68
2018-07-07T00:21:11.965Z,71.44
2018-07-07T00:23:40.354Z,72.33
2018-07-07T00:26:08.968Z,72.50
2018-07-07T00:28:37.203Z,71.73
2018-07-07T00:31:05.781Z,71.62
2018-07-07T00:33:34.207Z,71.79
2018-07-07T00:36:02.754Z,71.92
2018-07-07T00:38:31.030Z,72.71
2018-07-07T00:40:59.332Z,73.32
2018-07-07T00:43:27.674Z,73.56
2018-07-07T00:45:55.958Z,74.32
2018-07-07T00:48:24.259Z,74.15
2018-07-07T00:50:52.488Z,72.15
2018-07-07T00:53:20.886Z,72.25
2018-07-07T00:55:49.281Z,71.44
2018-07-07T00:58:17.642Z,71.27
2018-07-07T01:00:48.733Z,71.11
2018-07-07T01:03:16.958Z,71.03
2018-07-07T01:05:45.945Z,71.90
2018-07-07T01:08:14.778Z,71.99
2018-07-07T01:10:43.361Z,71.30
2018-07-07T01:13:11.697Z,71.17
2018-07-07T01:15:40.374Z,71.22
2018-07-07T01:18:08.754Z,71.54
2018-07-07T01:20:37.275Z,71.99
2018-07-07T01:23:05.610Z,72.57
2018-07-07T01:25:33.693Z,73.05
2018-07-07T01:28:02.099Z,72.77
2018-07-07T01:30:30.446Z,73.25
2018-07-07T01:32:58.364Z,74.32
2018-07-07T01:35:26.617Z,74.02
2018-07-07T01:37:54.967Z,74.07
2018-07-07T01:40:22.896Z,74.61
2018-07-07T01:42:51.206Z,74.31
2018-07-07T01:45:19.612Z,74.10
2018-07-07T01:47:47.958Z,74.04
2018-07-07T01:50:16.347Z,73.62
2018-07-07T01:52:44.618Z,75.09
2018-07-07T01:55:13.090Z,74.54
2018-07-07T01:57:41.296Z,74.78
2018-07-07T02:00:09.837Z,75.22
2018-07-07T02:02:38.017Z,75.50
2018-07-07T02:05:06.533Z,75.70
2018-07-07T02:07:34.877Z,75.34
2018-07-07T02:10:03.151Z,74.83
2018-07-07T02:12:31.465Z,74.55
2018-07-07T02:14:59.810Z,74.71
2018-07-07T02:17:27.977Z,74.08
2018-07-07T02:19:56.295Z,74.68
2018-07-07T02:22:24.886Z,74.76
2018-07-07T02:24:53.525Z,75.47
2018-07-07T02:27:23.421Z,75.39
2018-07-07T02:29:52.122Z,74.76
2018-07-07T02:32:20.398Z,73.66
2018-07-07T02:34:48.921Z,73.98
2018-07-07T02:37:17.262Z,74.62
2018-07-07T02:39:45.666Z,75.45
2018-07-07T02:42:14.262Z,76.14
2018-07-07T02:44:42.479Z,76.43
2018-07-07T02:47:10.978Z,76.24
2018-07-07T02:49:39.295Z,77.38
2018-07-07T02:52:07.739Z,77.74
2018-07-07T02:54:36.119Z,77.74
2018-07-07T02:57:04.515Z,77.92
2018-07-07T02:59:32.744Z,78.11
2018-07-07T03:02:01.139Z,78.18
2018-07-07T03:04:29.468Z,78.25
2018-07-07T03:06:57.899Z,77.41
2018-07-07T03:09:26.174Z,76.05
2018-07-07T03:11:54.142Z,77.47
2018-07-07T03:14:22.314Z,77.39
2018-07-07T03:16:50.795Z,77.16
2018-07-07T03:19:18.982Z,76.07
2018-07-07T03:21:47.441Z,76.47
2018-07-07T03:24:15.721Z,75.85
2018-07-07T03:26:43.849Z,75.91
2018-07-07T03:29:12.169Z,75.61
2018-07-07T03:31:40.438Z,74.95
2018-07-07T03:34:08.755Z,74.86
2018-07-07T03:36:36.997Z,74.75
2018-07-07T03:39:06.550Z,74.30
2018-07-07T03:41:34.941Z,75.13
2018-07-07T03:44:03.249Z,75.55
2018-07-07T03:46:31.534Z,75.87
2018-07-07T03:48:59.737Z,76.18
2018-07-07T03:51:28.073Z,75.68
2018-07-07T03:53:56.345Z,75.67
2018-07-07T03:56:24.671Z,75.27
2018-07-07T03:58:53.078Z,75.13
2018-07-07T04:01:21.509Z,76.75
2018-07-07T04:03:49.903Z,76.29
2018-07-07T04:06:18.452Z,75.36
2018-07-07T04:08:46.925Z,75.37
2018-07-07T04:11:15.313Z,76.05
2018-07-07T04:13:43.678Z,76.04
2018-07-07T04:16:12.070Z,77.19
2018-07-07T04:18:40.324Z,77.71
2018-07-07T04:21:08.726Z,76.72
2018-07-07T04:23:36.986Z,75.85
2018-07-07T04:26:05.364Z,75.06
2018-07-07T04:28:33.989Z,75.09
2018-07-07T04:31:02.433Z,76.00
2018-07-07T04:33:30.723Z,76.71
2018-07-07T04:35:59.020Z,77.06
2018-07-07T04:38:27.353Z,76.04
2018-07-07T04:40:55.633Z,75.18
2018-07-07T04:43:24.053Z,75.07
2018-07-07T04:45:52.421Z,74.43
2018-07-07T04:48:20.878Z,75.14
2018-07-07T04:50:48.837Z,75.13
2018-07-07T04:53:17.119Z,74.26
2018-07-07T04:55:45.498Z,74.35
2018-07-07T04:58:13.814Z,73.81
2018-07-07T05:00:42.350Z,73.47
2018-07-07T05:03:10.840Z,73.33
2018-07-07T05:05:39.139Z,74.28
2018-07-07T05:08:07.595Z,75.36
2018-07-07T05:10:35.857Z,75.92
2018-07-07T05:13:04.285Z,75.68
2018-07-07T05:15:32.851Z,75.03
2018-07-07T05:18:01.207Z,74.69
2018-07-07T05:20:29.489Z,73.76
2018-07-07T05:22:57.885Z,74.88
2018-07-07T05:25:26.432Z,74.71
2018-07-07T05:27:54.712Z,74.55
2018-07-07T05:30:23.121Z,75.40
2018-07-07T05:32:51.473Z,74.87
2018-07-07T05:35:19.746Z,75.51
2018-07-07T05:37:47.954Z,73.76
2018-07-07T05:40:15.854Z,74.00
2018-07-07T05:42:43.986Z,73.71
2018-07-07T05:45:11.958Z,73.37
2018-07-07T05:47:39.869Z,73.53
2018-07-07T05:50:07.922Z,72.62
2018-07-07T05:52:35.836Z,71.72
2018-07-07T05:55:03.867Z,71.41
2018-07-07T05:57:32.359Z,71.22
2018-07-07T06:00:00.595Z,71.28
2018-07-07T06:02:29.129Z,71.08
2018-07-07T06:04:57.510Z,71.28
2018-07-07T06:07:25.730Z,70.27
2018-07-07T06:09:54.058Z,69.29
2018-07-07T06:12:22.446Z,67.75
2018-07-07T06:14:50.338Z,68.03
2018-07-07T06:17:18.253Z,69.68
2018-07-07T06:19:46.563Z,69.71
2018-07-07T06:22:15.034Z,70.42
2018-07-07T06:24:43.336Z,71.22
2018-07-07T06:27:11.677Z,70.57
2018-07-07T06:29:40.058Z,70.69
2018-07-07T06:32:08.579Z,69.80
2018-07-07T06:34:36.926Z,70.56
2018-07-07T06:37:05.399Z,69.27
2018-07-07T06:39:33.614Z,69.04
2018-07-07T06:42:02.050Z,69.86
2018-07-07T06:44:30.222Z,69.32
2018-07-07T06:46:58.610Z,68.92
2018-07-07T06:49:26.882Z,67.10
2018-07-07T06:51:55.158Z,68.53
2018-07-07T06:54:23.625Z,68.60
2018-07-07T06:56:51.923Z,67.97
2018-07-07T06:59:20.198Z,68.10
2018-07-07T07:01:48.527Z,67.41
2018-07-07T07:04:16.833Z,66.14
2018-07-07T07:06:45.125Z,64.89
2018-07-07T07:09:13.394Z,65.01
2018-07-07T07:11:41.774Z,65.42
2018-07-07T07:14:10.361Z,64.66
2018-07-07T07:16:38.275Z,64.08
2018-07-07T07:19:07.090Z,64.59
2018-07-07T07:21:35.019Z,62.54
2018-07-07T07:24:02.978Z,61.40
2018-07-07T07:26:30.920Z,61.89
2018-07-07T07:28:58.850Z,62.50
2018-07-07T07:31:27.054Z,64.26
2018-07-07T07:33:55.525Z,62.87
2018-07-07T07:36:44.049Z,61.77
2018-07-07T07:39:12.111Z,60.74
2018-07-07T07:41:40.048Z,60.51
2018-07-07T07:44:08.147Z,60.05
2018-07-07T07:46:36.089Z,61.09
2018-07-07T07:49:04.049Z,61.84
2018-07-07T07:51:31.943Z,62.23
2018-07-07T07:53:59.894Z,63.07
2018-07-07T07:56:28.321Z,62.52
2018-07-07T07:58:57.234Z,62.48
2018-07-07T08:01:25.340Z,62.38
2018-07-07T08:03:53.456Z,62.46
2018-07-07T08:06:21.903Z,62.91
2018-07-07T08:08:49.886Z,62.04
2018-07-07T08:11:17.762Z,62.14
2018-07-07T08:13:45.687Z,61.90
2018-07-07T08:16:13.633Z,59.91
2018-07-07T08:18:41.746Z,59.74
2018-07-07T08:21:09.722Z,59.54
2018-07-07T08:23:37.630Z,59.22
2018-07-07T08:26:05.595Z,58.89
2018-07-07T08:28:33.551Z,58.23
2018-07-07T08:31:01.462Z,57.80
2018-07-07T08:33:29.354Z,58.02
2018-07-07T08:35:57.238Z,58.19
2018-07-07T08:38:25.134Z,58.14
2018-07-07T08:40:52.997Z,56.63
2018-07-07T08:43:21.222Z,55.92
2018-07-07T08:45:49.123Z,56.43
2018-07-07T08:48:17.065Z,56.86
2018-07-07T08:50:45.439Z,56.32
2018-07-07T08:53:14.010Z,55.42
2018-07-07T08:55:41.925Z,54.67
2018-07-07T08:58:09.814Z,55.58
2018-07-07T09:00:37.742Z,55.51
2018-07-07T09:03:06.697Z,55.23
2018-07-07T09:05:34.634Z,54.20
2018-07-07T09:08:02.970Z,56.52
2018-07-07T09:10:31.122Z,55.37
2018-07-07T09:12:59.049Z,55.80
2018-07-07T09:15:27.372Z,55.26
2018-07-07T09:17:55.318Z,55.34
2018-07-07T09:20:23.218Z,54.63
2018-07-07T09:22:51.130Z,53.71
2018-07-07T09:25:19.038Z,53.44
2018-07-07T09:27:46.950Z,51.79
2018-07-07T09:30:14.919Z,52.76
2018-07-07T09:32:42.817Z,53.76
2018-07-07T09:35:10.734Z,55.98
2018-07-07T09:37:38.637Z,54.19
2018-07-07T09:40:06.581Z,55.35
2018-07-07T09:42:34.468Z,51.94
2018-07-07T09:45:02.403Z,54.27
2018-07-07T09:47:30.308Z,54.54
2018-07-07T09:49:58.226Z,48.18
2018-07-07T09:52:26.139Z,47.55
2018-07-07T09:54:54.940Z,47.96
2018-07-07T09:57:22.821Z,47.48
2018-07-07T09:59:50.701Z,52.60
2018-07-07T10:02:18.570Z,52.72
2018-07-07T10:04:46.466Z,51.97
2018-07-07T10:07:14.386Z,52.88
2018-07-07T10:09:42.314Z,48.75
2018-07-07T10:12:10.213Z,48.41
2018-07-07T10:14:38.143Z,52.02
2018-07-07T10:17:06.038Z,47.63
2018-07-07T10:19:33.964Z,44.91
2018-07-07T10:22:01.882Z,47.62
2018-07-07T10:24:29.861Z,47.31
2018-07-07T10:26:57.754Z,50.64
2018-07-07T10:29:25.663Z,48.24
2018-07-07T10:31:53.564Z,52.43
2018-07-07T10:34:21.467Z,49.10
2018-07-07T10:36:49.375Z,49.18
2018-07-07T10:39:17.253Z,49.19
2018-07-07T10:41:45.146Z,48.95
2018-07-07T10:44:13.041Z,50.24
2018-07-07T10:46:40.961Z,48.85
2018-07-07T10:49:08.837Z,52.03
2018-07-07T10:51:36.741Z,49.78
2018-07-07T10:54:04.718Z,50.04
2018-07-07T10:56:32.615Z,52.61
2018-07-07T10:59:00.493Z,49.51
2018-07-07T11:01:28.468Z,50.23
2018-07-07T11:03:56.378Z,49.24
2018-07-07T11:06:24.412Z,48.80
2018-07-07T11:08:52.317Z,50.09
2018-07-07T11:11:20.195Z,51.77
2018-07-07T11:13:48.098Z,49.08
2018-07-07T11:16:15.974Z,50.03
2018-07-07T11:18:44.128Z,49.54
2018-07-07T11:21:12.113Z,53.60
2018-07-07T11:23:39.996Z,57.31
2018-07-07T11:26:07.996Z,62.10
2018-07-07T11:28:35.873Z,66.14
2018-07-07T11:31:03.769Z,66.59
2018-07-07T11:33:31.653Z,68.87
2018-07-07T11:35:59.535Z,72.11
2018-07-07T11:38:27.551Z,72.09
2018-07-07T11:40:55.519Z,72.22
2018-07-07T11:43:23.525Z,71.46
2018-07-07T11:45:51.540Z,72.40
2018-07-07T11:48:19.534Z,73.89
2018-07-07T11:50:47.448Z,74.48
2018-07-07T11:53:15.352Z,74.30
2018-07-07T11:55:43.245Z,74.85
2018-07-07T11:58:11.789Z,76.97
2018-07-07T12:00:40.075Z,78.18
2018-07-07T12:03:08.683Z,78.52
2018-07-07T12:05:37.123Z,79.29
2018-07-07T12:08:13.874Z,80.57
2018-07-07T12:10:34.091Z,79.41
2018-07-07T12:13:02.553Z,79.40
2018-07-07T12:15:30.733Z,79.18
2018-07-07T12:17:59.236Z,80.39
2018-07-07T12:20:27.394Z,81.32
2018-07-07T12:22:55.775Z,83.78
2018-07-07T12:25:24.036Z,85.71
2018-07-07T12:27:52.537Z,86.59
2018-07-07T12:30:20.597Z,86.09
2018-07-07T12:32:49.070Z,86.08
2018-07-07T12:35:17.353Z,84.59
2018-07-07T12:37:45.525Z,86.22
2018-07-07T12:40:13.905Z,87.26
2018-07-07T12:42:42.173Z,88.93
2018-07-07T12:45:10.558Z,90.10
2018-07-07T12:47:38.827Z,90.57
2018-07-07T12:50:07.312Z,91.73
2018-07-07T12:52:35.789Z,91.33
2018-07-07T12:55:04.319Z,92.84
2018-07-07T12:57:32.847Z,94.37
2018-07-07T13:00:01.231Z,93.14
2018-07-07T13:02:29.615Z,91.41
2018-07-07T13:04:58.084Z,90.51
2018-07-07T13:07:26.469Z,91.49
2018-07-07T13:09:54.958Z,93.69
2018-07-07T13:12:23.330Z,94.40
2018-07-07T13:14:51.706Z,94.90
2018-07-07T13:17:20.086Z,93.93
2018-07-07T13:19:48.505Z,95.94
2018-07-07T13:22:16.833Z,95.72
2018-07-07T13:24:45.118Z,96.43
2018-07-07T13:27:13.630Z,96.81
2018-07-07T13:29:41.861Z,95.38
2018-07-07T13:32:10.344Z,96.29
2018-07-07T13:34:39.281Z,94.67
2018-07-07T13:37:07.612Z,95.02
2018-07-07T13:39:38.044Z,94.10
2018-07-07T13:42:07.151Z,92.90
2018-07-07T13:44:35.527Z,91.43
2018-07-07T13:47:03.998Z,91.52
2018-07-07T13:49:32.269Z,89.63
2018-07-07T13:52:00.649Z,89.69
2018-07-07T13:54:28.585Z,88.92
2018-07-07T13:56:56.998Z,87.93
2018-07-07T13:59:25.165Z,89.17
2018-07-07T14:01:53.996Z,88.77
2018-07-07T14:04:22.657Z,89.31
2018-07-07T14:06:51.010Z,87.85
2018-07-07T14:09:19.299Z,88.04
2018-07-07T14:11:47.665Z,86.77
2018-07-07T14:14:16.158Z,86.80
2018-07-07T14:16:44.475Z,84.84
2018-07-07T14:19:13.117Z,77.38
2018-07-07T14:21:41.384Z,77.78
2018-07-07T14:24:09.297Z,78.33
2018-07-07T14:26:37.738Z,80.19
2018-07-07T14:29:06.122Z,80.03
2018-07-07T14:31:34.489Z,80.64
2018-07-07T14:34:02.361Z,79.93
2018-07-07T14:36:30.634Z,79.56
2018-07-07T14:38:58.813Z,81.19
2018-07-07T14:41:27.169Z,80.97
2018-07-07T14:44:01.863Z,80.93
2018-07-07T14:46:30.309Z,80.06
2018-07-07T14:48:58.772Z,82.38
2018-07-07T14:51:27.146Z,81.84
2018-07-07T14:53:55.257Z,82.48
2018-07-07T14:56:24.218Z,82.98
2018-07-07T14:58:52.492Z,84.35
2018-07-07T15:01:20.482Z,84.33
2018-07-07T15:03:48.730Z,85.20
2018-07-07T15:06:17.111Z,84.65
2018-07-07T15:08:45.104Z,85.05
2018-07-07T15:11:13.787Z,84.38
2018-07-07T15:13:42.140Z,83.46
2018-07-07T15:16:10.525Z,84.50
2018-07-07T15:18:38.893Z,83.62
2018-07-07T15:21:07.274Z,83.07
2018-07-07T15:23:35.549Z,82.91
2018-07-07T15:26:03.925Z,82.39
2018-07-07T15:28:32.301Z,83.00
2018-07-07T15:31:00.569Z,82.70
2018-07-07T15:33:28.520Z,82.61
2018-07-07T15:35:56.398Z,82.20
2018-07-07T15:38:24.270Z,81.65
2018-07-07T15:40:52.177Z,81.37
2018-07-07T15:43:20.095Z,81.40
2018-07-07T15:45:47.982Z,80.71
2018-07-07T15:48:15.922Z,81.37
2018-07-07T15:50:43.850Z,80.92
2018-07-07T15:53:11.800Z,80.91
2018-07-07T15:55:39.746Z,82.06
2018-07-07T15:58:07.766Z,81.91
2018-07-07T16:00:35.695Z,82.69
2018-07-07T16:03:03.666Z,82.68
2018-07-07T16:05:31.585Z,81.40
2018-07-07T16:07:59.460Z,81.64
2018-07-07T16:10:27.457Z,81.67
2018-07-07T16:12:55.362Z,80.14
2018-07-07T16:15:23.357Z,80.63
2018-07-07T16:17:51.290Z,81.08
2018-07-07T16:20:19.276Z,80.94
2018-07-07T16:22:47.185Z,81.35
2018-07-07T16:25:15.079Z,80.90
2018-07-07T16:27:43.002Z,81.66
2018-07-07T16:30:10.963Z,81.30
2018-07-07T16:32:38.861Z,80.28
2018-07-07T16:35:06.783Z,80.20
2018-07-07T16:37:34.810Z,80.05
2018-07-07T16:40:02.895Z,81.60
2018-07-07T16:42:30.907Z,83.23
2018-07-07T16:44:59.558Z,82.56
2018-07-07T16:47:27.604Z,81.97
2018-07-07T16:49:55.765Z,80.56
2018-07-07T16:52:23.942Z,80.37
2018-07-07T16:54:52.318Z,80.21
2018-07-07T16:57:20.410Z,78.95
2018-07-07T16:59:48.498Z,79.44
2018-07-07T17:02:18.726Z,79.40
2018-07-07T17:04:46.806Z,80.65
2018-07-07T17:07:14.830Z,81.32
2018-07-07T17:09:43.505Z,80.63
2018-07-07T17:12:11.633Z,80.48
2018-07-07T17:14:39.711Z,82.28
2018-07-07T17:17:07.758Z,81.53
2018-07-07T17:19:35.866Z,82.22
2018-07-07T17:22:03.857Z,81.03
2018-07-07T17:24:32.191Z,80.86
2018-07-07T17:27:00.335Z,80.57
2018-07-07T17:29:28.374Z,80.22
2018-07-07T17:31:56.898Z,79.99
2018-07-07T17:34:25.758Z,80.59
2018-07-07T17:36:54.363Z,80.09
2018-07-07T17:39:22.290Z,80.20
2018-07-07T17:41:50.306Z,80.28
2018-07-07T17:44:18.694Z,81.87
2018-07-07T17:46:46.681Z,82.30
2018-07-07T17:49:15.629Z,82.31
2018-07-07T17:51:43.677Z,81.73
2018-07-07T17:54:11.645Z,80.78
2018-07-07T17:56:40.298Z,81.04
2018-07-07T17:59:08.366Z,81.12
2018-07-07T18:01:36.935Z,80.73
2018-07-07T18:04:05.210Z,81.40
2018-07-07T18:06:33.121Z,82.50
2018-07-07T18:09:00.998Z,83.07
2018-07-07T18:11:28.969Z,83.75
2018-07-07T18:13:56.878Z,84.06
2018-07-07T18:16:24.839Z,84.94
2018-07-07T18:18:52.770Z,85.36
2018-07-07T18:21:20.679Z,85.12
2018-07-07T18:23:48.601Z,84.46
2018-07-07T18:26:16.548Z,83.94
2018-07-07T18:28:44.454Z,84.20
2018-07-07T18:31:12.651Z,84.40
2018-07-07T18:33:40.578Z,85.71
2018-07-07T18:36:08.617Z,85.18
2018-07-07T18:38:36.552Z,85.37
2018-07-07T18:41:04.499Z,85.08
2018-07-07T18:43:32.450Z,85.36
2018-07-07T18:46:00.416Z,84.72
2018-07-07T18:48:28.379Z,84.06
2018-07-07T18:50:56.253Z,83.98
2018-07-07T18:53:24.215Z,83.76
2018-07-07T18:55:52.130Z,84.84
2018-07-07T18:58:20.025Z,84.03
2018-07-07T19:00:47.954Z,83.62
2018-07-07T19:03:15.883Z,83.27
2018-07-07T19:05:43.807Z,84.41
2018-07-07T19:08:11.677Z,83.98
2018-07-07T19:10:39.585Z,84.61
2018-07-07T19:13:07.525Z,83.66
2018-07-07T19:15:35.521Z,83.51
2018-07-07T19:18:03.478Z,83.25
2018-07-07T19:20:37.036Z,84.00
2018-07-07T19:23:10.524Z,83.96
2018-07-07T19:25:44.125Z,84.36
2018-07-07T19:28:12.104Z,84.65
2018-07-07T19:30:40.027Z,84.36
2018-07-07T19:33:13.551Z,83.37
2018-07-07T19:35:46.899Z,83.46
2018-07-07T19:38:14.841Z,82.67
2018-07-07T19:40:42.888Z,82.47
2018-07-07T19:43:10.861Z,82.05
2018-07-07T19:45:38.790Z,81.06
2018-07-07T19:48:07.048Z,81.09
2018-07-07T19:50:35.023Z,80.96
2018-07-07T19:53:03.055Z,79.38
2018-07-07T19:55:30.971Z,79.59
2018-07-07T19:57:58.869Z,79.70
2018-07-07T20:00:26.805Z,78.85
2018-07-07T20:02:54.933Z,79.67
2018-07-07T20:05:22.841Z,78.83
2018-07-07T20:07:50.783Z,79.01
2018-07-07T20:10:18.762Z,79.13
2018-07-07T20:12:46.703Z,79.09
2018-07-07T20:15:14.722Z,79.21
2018-07-07T20:18:05.365Z,79.22
2018-07-07T20:20:38.722Z,79.66
2018-07-07T20:23:10.098Z,79.56
2018-07-07T20:25:38.059Z,79.90
2018-07-07T20:28:11.548Z,79.86
2018-07-07T20:30:39.535Z,79.88
2018-07-07T20:33:07.921Z,80.20
2018-07-07T20:35:36.046Z,80.58
2018-07-07T20:38:04.060Z,79.87
2018-07-07T20:40:32.382Z,79.37
2018-07-07T20:43:00.658Z,79.73
2018-07-07T20:45:29.881Z,79.65
2018-07-07T20:47:58.431Z,80.02
2018-07-07T20:50:26.917Z,79.97
2018-07-07T20:52:55.285Z,79.70
2018-07-07T20:55:23.561Z,79.61
2018-07-07T20:57:51.938Z,79.87
2018-07-07T21:00:20.318Z,78.51
2018-07-07T21:02:48.709Z,78.47
2018-07-07T21:05:17.081Z,78.67
2018-07-07T21:07:45.565Z,78.23
2018-07-07T21:10:14.043Z,78.09
2018-07-07T21:12:42.521Z,77.97
2018-07-07T21:15:10.897Z,78.11
2018-07-07T21:17:39.279Z,78.11
2018-07-07T21:20:07.754Z,78.74
2018-07-07T21:22:36.138Z,78.54
2018-07-07T21:25:04.476Z,78.71
2018-07-07T21:27:32.985Z,78.72
2018-07-07T21:30:01.629Z,77.99
2018-07-07T21:32:30.149Z,78.51
2018-07-07T21:34:58.546Z,78.54
2018-07-07T21:37:26.805Z,78.59
2018-07-07T21:39:55.190Z,78.78
2018-07-07T21:42:23.766Z,77.76
2018-07-07T21:44:52.560Z,77.03
2018-07-07T21:47:20.938Z,77.63
2018-07-07T21:49:49.522Z,77.67
2018-07-07T21:52:18.094Z,77.22
2018-07-07T21:54:46.429Z,77.07
2018-07-07T21:57:20.306Z,78.03
2018-07-07T21:59:48.869Z,77.40
2018-07-07T22:02:22.399Z,76.83
2018-07-07T22:04:56.087Z,77.30
2018-07-07T22:07:30.005Z,76.55
2018-07-07T22:09:58.254Z,75.70
2018-07-07T22:12:28.677Z,75.69
2018-07-07T22:14:57.161Z,76.17
2018-07-07T22:17:25.427Z,75.57
2018-07-07T22:20:00.130Z,75.12
2018-07-07T22:22:28.525Z,74.85
2018-07-07T22:24:56.819Z,75.89
2018-07-07T22:27:24.729Z,76.39
2018-07-07T22:29:52.655Z,77.56
2018-07-07T22:32:22.701Z,78.87
2018-07-07T22:34:50.893Z,81.14
2018-07-07T22:37:18.926Z,81.55
2018-07-07T22:39:47.148Z,82.38
2018-07-07T22:42:16.429Z,81.76
2018-07-07T22:44:45.807Z,82.02
2018-07-07T22:47:14.159Z,82.69
2018-07-07T22:49:42.638Z,82.29
2018-07-07T22:52:11.178Z,82.24
2018-07-07T22:54:39.702Z,82.14
2018-07-07T22:57:08.078Z,81.99
2018-07-07T22:59:36.462Z,83.05
2018-07-07T23:02:04.825Z,83.95
2018-07-07T23:04:33.204Z,85.22
2018-07-07T23:07:01.589Z,85.97
2018-07-07T23:09:30.061Z,85.53
2018-07-07T23:11:58.449Z,85.53
2018-07-07T23:14:27.032Z,85.98
2018-07-07T23:16:59.990Z,87.03
2018-07-07T23:19:28.405Z,87.81
2018-07-07T23:21:56.845Z,87.00
2018-07-07T23:24:25.475Z,86.07
2018-07-07T23:26:54.142Z,84.65
2018-07-07T23:29:22.522Z,84.45
2018-07-07T23:31:50.902Z,84.88
2018-07-07T23:34:19.166Z,84.70
2018-07-07T23:36:47.450Z,87.19
2018-07-07T23:39:15.719Z,86.96
2018-07-07T23:41:44.129Z,86.18
2018-07-07T23:44:12.539Z,86.62
2018-07-07T23:46:41.057Z,85.91
2018-07-07T23:49:09.338Z,85.07
2018-07-07T23:51:37.822Z,84.20
2018-07-07T23:54:06.298Z,83.67
2018-07-07T23:56:34.778Z,82.96
2018-07-07T23:59:03.054Z,83.58
